sensor_id;sensor_type;location;lat;lon;timestamp;P1;durP1;ratioP1;P2;durP2;ratioP2
16015;SDS011;8112;53.592;10.184;2022-11-25T00:02:41;26.90;;;17.37;;
16015;SDS011;8112;53.592;10.184;2022-11-25T00:07:46;20.90;;;14.97;;
16015;SDS011;8112;53.592;10.184;2022-11-25T00:12:48;19.50;;;14.13;;
16015;SDS011;8112;53.592;10.184;2022-11-25T00:17:50;19.97;;;14.03;;
16015;SDS011;8112;53.592;10.184;2022-11-25T00:22:53;20.37;;;13.47;;
16015;SDS011;8112;53.592;10.184;2022-11-25T00:27:55;18.03;;;12.73;;
16015;SDS011;8112;53.592;10.184;2022-11-25T00:32:57;20.03;;;12.87;;
16015;SDS011;8112;53.592;10.184;2022-11-25T00:38:01;20.57;;;12.83;;
16015;SDS011;8112;53.592;10.184;2022-11-25T00:43:05;18.53;;;12.73;;
16015;SDS011;8112;53.592;10.184;2022-11-25T00:48:24;21.07;;;13.67;;
16015;SDS011;8112;53.592;10.184;2022-11-25T00:53:28;24.87;;;14.40;;
16015;SDS011;8112;53.592;10.184;2022-11-25T00:58:31;20.97;;;13.83;;
16015;SDS011;8112;53.592;10.184;2022-11-25T01:03:33;17.70;;;12.93;;
16015;SDS011;8112;53.592;10.184;2022-11-25T01:08:37;21.23;;;14.63;;
16015;SDS011;8112;53.592;10.184;2022-11-25T01:13:39;18.93;;;13.80;;
16015;SDS011;8112;53.592;10.184;2022-11-25T01:18:42;19.53;;;14.37;;
16015;SDS011;8112;53.592;10.184;2022-11-25T01:23:46;20.23;;;13.57;;
16015;SDS011;8112;53.592;10.184;2022-11-25T01:28:51;19.33;;;14.23;;
16015;SDS011;8112;53.592;10.184;2022-11-25T01:33:58;23.50;;;14.70;;
16015;SDS011;8112;53.592;10.184;2022-11-25T01:39:03;25.97;;;15.37;;
16015;SDS011;8112;53.592;10.184;2022-11-25T01:44:07;19.83;;;13.20;;
16015;SDS011;8112;53.592;10.184;2022-11-25T01:49:12;21.30;;;15.07;;
16015;SDS011;8112;53.592;10.184;2022-11-25T01:54:19;18.37;;;12.40;;
16015;SDS011;8112;53.592;10.184;2022-11-25T01:59:24;19.37;;;13.70;;
16015;SDS011;8112;53.592;10.184;2022-11-25T02:04:28;21.30;;;14.53;;
16015;SDS011;8112;53.592;10.184;2022-11-25T02:09:35;18.80;;;14.10;;
16015;SDS011;8112;53.592;10.184;2022-11-25T02:14:39;20.13;;;15.07;;
16015;SDS011;8112;53.592;10.184;2022-11-25T02:19:45;25.10;;;15.93;;
16015;SDS011;8112;53.592;10.184;2022-11-25T02:24:59;22.10;;;14.80;;
16015;SDS011;8112;53.592;10.184;2022-11-25T02:30:10;20.67;;;14.33;;
16015;SDS011;8112;53.592;10.184;2022-11-25T02:40:41;22.10;;;14.17;;
16015;SDS011;8112;53.592;10.184;2022-11-25T02:45:51;19.10;;;13.97;;
16015;SDS011;8112;53.592;10.184;2022-11-25T02:50:57;19.57;;;13.93;;
16015;SDS011;8112;53.592;10.184;2022-11-25T02:56:00;19.83;;;13.23;;
16015;SDS011;8112;53.592;10.184;2022-11-25T03:01:02;23.47;;;15.37;;
16015;SDS011;8112;53.592;10.184;2022-11-25T03:06:05;23.30;;;14.27;;
16015;SDS011;8112;53.592;10.184;2022-11-25T03:11:17;19.17;;;13.50;;
16015;SDS011;8112;53.592;10.184;2022-11-25T03:16:19;24.83;;;14.63;;
16015;SDS011;8112;53.592;10.184;2022-11-25T03:21:21;25.17;;;16.23;;
16015;SDS011;8112;53.592;10.184;2022-11-25T03:26:25;22.60;;;15.50;;
16015;SDS011;8112;53.592;10.184;2022-11-25T03:31:27;27.87;;;16.60;;
16015;SDS011;8112;53.592;10.184;2022-11-25T03:36:29;23.20;;;14.23;;
16015;SDS011;8112;53.592;10.184;2022-11-25T03:41:32;23.37;;;15.53;;
16015;SDS011;8112;53.592;10.184;2022-11-25T03:46:35;21.57;;;15.33;;
16015;SDS011;8112;53.592;10.184;2022-11-25T03:51:39;23.57;;;15.17;;
16015;SDS011;8112;53.592;10.184;2022-11-25T03:56:43;23.67;;;14.70;;
16015;SDS011;8112;53.592;10.184;2022-11-25T04:01:45;22.17;;;14.83;;
16015;SDS011;8112;53.592;10.184;2022-11-25T04:06:47;23.90;;;14.60;;
16015;SDS011;8112;53.592;10.184;2022-11-25T04:11:50;19.17;;;13.90;;
16015;SDS011;8112;53.592;10.184;2022-11-25T04:17:21;23.77;;;14.47;;
16015;SDS011;8112;53.592;10.184;2022-11-25T04:22:24;23.13;;;13.67;;
16015;SDS011;8112;53.592;10.184;2022-11-25T04:27:28;19.73;;;13.23;;
16015;SDS011;8112;53.592;10.184;2022-11-25T04:32:30;21.07;;;13.93;;
16015;SDS011;8112;53.592;10.184;2022-11-25T04:37:33;19.93;;;13.53;;
16015;SDS011;8112;53.592;10.184;2022-11-25T04:42:37;19.27;;;13.17;;
16015;SDS011;8112;53.592;10.184;2022-11-25T04:47:43;18.43;;;13.40;;
16015;SDS011;8112;53.592;10.184;2022-11-25T04:52:46;18.80;;;13.17;;
16015;SDS011;8112;53.592;10.184;2022-11-25T04:57:50;22.13;;;13.27;;
16015;SDS011;8112;53.592;10.184;2022-11-25T05:02:53;18.37;;;12.63;;
16015;SDS011;8112;53.592;10.184;2022-11-25T05:07:56;20.03;;;13.17;;
16015;SDS011;8112;53.592;10.184;2022-11-25T05:13:00;21.27;;;13.73;;
16015;SDS011;8112;53.592;10.184;2022-11-25T05:18:03;18.37;;;12.10;;
16015;SDS011;8112;53.592;10.184;2022-11-25T05:23:15;17.97;;;12.57;;
16015;SDS011;8112;53.592;10.184;2022-11-25T05:28:19;18.23;;;13.00;;
16015;SDS011;8112;53.592;10.184;2022-11-25T05:33:21;23.53;;;15.17;;
16015;SDS011;8112;53.592;10.184;2022-11-25T05:38:24;19.03;;;12.33;;
16015;SDS011;8112;53.592;10.184;2022-11-25T05:43:28;18.20;;;12.27;;
16015;SDS011;8112;53.592;10.184;2022-11-25T05:48:31;23.77;;;12.47;;
16015;SDS011;8112;53.592;10.184;2022-11-25T05:53:33;18.20;;;12.20;;
16015;SDS011;8112;53.592;10.184;2022-11-25T05:58:38;17.37;;;12.47;;
16015;SDS011;8112;53.592;10.184;2022-11-25T06:03:40;20.03;;;13.00;;
16015;SDS011;8112;53.592;10.184;2022-11-25T06:08:43;17.90;;;12.43;;
16015;SDS011;8112;53.592;10.184;2022-11-25T06:13:48;18.73;;;12.93;;
16015;SDS011;8112;53.592;10.184;2022-11-25T06:18:51;15.60;;;11.53;;
16015;SDS011;8112;53.592;10.184;2022-11-25T06:23:53;18.77;;;12.20;;
16015;SDS011;8112;53.592;10.184;2022-11-25T06:28:58;15.57;;;11.03;;
16015;SDS011;8112;53.592;10.184;2022-11-25T06:34:00;18.27;;;12.17;;
16015;SDS011;8112;53.592;10.184;2022-11-25T06:39:02;22.07;;;11.10;;
16015;SDS011;8112;53.592;10.184;2022-11-25T06:44:05;17.10;;;10.57;;
16015;SDS011;8112;53.592;10.184;2022-11-25T06:49:07;17.17;;;10.30;;
16015;SDS011;8112;53.592;10.184;2022-11-25T06:54:09;16.03;;;9.83;;
16015;SDS011;8112;53.592;10.184;2022-11-25T06:59:12;14.27;;;10.43;;
16015;SDS011;8112;53.592;10.184;2022-11-25T07:04:14;14.33;;;9.20;;
16015;SDS011;8112;53.592;10.184;2022-11-25T07:09:15;17.73;;;10.17;;
16015;SDS011;8112;53.592;10.184;2022-11-25T07:14:19;14.77;;;10.30;;
16015;SDS011;8112;53.592;10.184;2022-11-25T07:19:21;16.00;;;10.17;;
16015;SDS011;8112;53.592;10.184;2022-11-25T07:24:23;15.80;;;10.40;;
16015;SDS011;8112;53.592;10.184;2022-11-25T07:29:27;14.37;;;9.70;;
16015;SDS011;8112;53.592;10.184;2022-11-25T07:34:29;13.90;;;9.37;;
16015;SDS011;8112;53.592;10.184;2022-11-25T07:39:31;13.63;;;8.77;;
16015;SDS011;8112;53.592;10.184;2022-11-25T07:44:34;17.13;;;9.93;;
16015;SDS011;8112;53.592;10.184;2022-11-25T07:50:02;15.73;;;9.40;;
16015;SDS011;8112;53.592;10.184;2022-11-25T07:55:05;12.60;;;9.07;;
16015;SDS011;8112;53.592;10.184;2022-11-25T08:00:09;14.77;;;8.00;;
16015;SDS011;8112;53.592;10.184;2022-11-25T08:05:13;14.30;;;8.90;;
16015;SDS011;8112;53.592;10.184;2022-11-25T08:10:15;13.67;;;8.80;;
16015;SDS011;8112;53.592;10.184;2022-11-25T08:15:18;13.87;;;8.67;;
16015;SDS011;8112;53.592;10.184;2022-11-25T08:20:20;13.30;;;8.37;;
16015;SDS011;8112;53.592;10.184;2022-11-25T08:25:22;15.83;;;9.17;;
16015;SDS011;8112;53.592;10.184;2022-11-25T08:30:27;17.17;;;8.83;;
16015;SDS011;8112;53.592;10.184;2022-11-25T08:35:29;11.90;;;8.70;;
16015;SDS011;8112;53.592;10.184;2022-11-25T08:40:33;12.40;;;7.43;;
16015;SDS011;8112;53.592;10.184;2022-11-25T08:45:37;12.60;;;8.27;;
16015;SDS011;8112;53.592;10.184;2022-11-25T08:50:39;10.37;;;7.60;;
16015;SDS011;8112;53.592;10.184;2022-11-25T08:55:42;12.73;;;7.23;;
16015;SDS011;8112;53.592;10.184;2022-11-25T09:00:46;15.00;;;7.93;;
16015;SDS011;8112;53.592;10.184;2022-11-25T09:05:48;12.37;;;7.90;;
16015;SDS011;8112;53.592;10.184;2022-11-25T09:10:51;13.80;;;8.87;;
16015;SDS011;8112;53.592;10.184;2022-11-25T09:15:54;12.47;;;7.73;;
16015;SDS011;8112;53.592;10.184;2022-11-25T09:20:56;15.63;;;7.90;;
16015;SDS011;8112;53.592;10.184;2022-11-25T09:25:59;11.70;;;8.07;;
16015;SDS011;8112;53.592;10.184;2022-11-25T09:31:07;11.67;;;7.60;;
16015;SDS011;8112;53.592;10.184;2022-11-25T09:36:10;12.73;;;7.70;;
16015;SDS011;8112;53.592;10.184;2022-11-25T09:41:16;12.53;;;7.17;;
16015;SDS011;8112;53.592;10.184;2022-11-25T09:46:51;11.33;;;7.60;;
16015;SDS011;8112;53.592;10.184;2022-11-25T09:52:06;10.83;;;7.07;;
16015;SDS011;8112;53.592;10.184;2022-11-25T09:57:19;9.07;;;6.60;;
16015;SDS011;8112;53.592;10.184;2022-11-25T10:02:28;11.40;;;6.70;;
16015;SDS011;8112;53.592;10.184;2022-11-25T10:07:36;13.50;;;7.73;;
16015;SDS011;8112;53.592;10.184;2022-11-25T10:12:42;9.80;;;5.87;;
16015;SDS011;8112;53.592;10.184;2022-11-25T10:17:47;11.07;;;6.80;;
16015;SDS011;8112;53.592;10.184;2022-11-25T10:22:52;10.67;;;6.37;;
16015;SDS011;8112;53.592;10.184;2022-11-25T10:27:57;12.13;;;6.10;;
16015;SDS011;8112;53.592;10.184;2022-11-25T10:33:04;12.63;;;6.43;;
16015;SDS011;8112;53.592;10.184;2022-11-25T10:38:20;10.03;;;6.47;;
16015;SDS011;8112;53.592;10.184;2022-11-25T10:43:26;13.27;;;6.47;;
16015;SDS011;8112;53.592;10.184;2022-11-25T10:48:35;12.40;;;6.20;;
16015;SDS011;8112;53.592;10.184;2022-11-25T10:59:13;9.50;;;5.70;;
16015;SDS011;8112;53.592;10.184;2022-11-25T11:04:25;10.97;;;6.57;;
16015;SDS011;8112;53.592;10.184;2022-11-25T11:09:31;10.57;;;6.50;;
16015;SDS011;8112;53.592;10.184;2022-11-25T11:14:35;9.67;;;6.77;;
16015;SDS011;8112;53.592;10.184;2022-11-25T11:19:38;9.43;;;6.50;;
16015;SDS011;8112;53.592;10.184;2022-11-25T11:24:40;13.63;;;6.97;;
16015;SDS011;8112;53.592;10.184;2022-11-25T11:29:42;11.23;;;6.47;;
16015;SDS011;8112;53.592;10.184;2022-11-25T11:34:49;13.40;;;7.53;;
16015;SDS011;8112;53.592;10.184;2022-11-25T11:40:02;12.73;;;6.60;;
16015;SDS011;8112;53.592;10.184;2022-11-25T11:45:22;13.20;;;7.10;;
16015;SDS011;8112;53.592;10.184;2022-11-25T11:50:36;11.03;;;6.97;;
16015;SDS011;8112;53.592;10.184;2022-11-25T11:55:49;12.43;;;6.50;;
16015;SDS011;8112;53.592;10.184;2022-11-25T12:00:57;16.30;;;6.87;;
16015;SDS011;8112;53.592;10.184;2022-11-25T12:06:13;14.93;;;7.23;;
16015;SDS011;8112;53.592;10.184;2022-11-25T12:11:17;9.77;;;6.20;;
16015;SDS011;8112;53.592;10.184;2022-11-25T12:16:23;11.10;;;6.47;;
16015;SDS011;8112;53.592;10.184;2022-11-25T12:21:36;11.30;;;6.77;;
16015;SDS011;8112;53.592;10.184;2022-11-25T12:26:45;16.97;;;7.40;;
16015;SDS011;8112;53.592;10.184;2022-11-25T12:31:52;12.13;;;7.20;;
16015;SDS011;8112;53.592;10.184;2022-11-25T12:37:05;15.37;;;6.77;;
16015;SDS011;8112;53.592;10.184;2022-11-25T12:42:12;9.37;;;6.57;;
16015;SDS011;8112;53.592;10.184;2022-11-25T12:47:17;10.70;;;5.90;;
16015;SDS011;8112;53.592;10.184;2022-11-25T12:57:59;9.93;;;6.77;;
16015;SDS011;8112;53.592;10.184;2022-11-25T13:03:24;10.33;;;6.63;;
16015;SDS011;8112;53.592;10.184;2022-11-25T13:08:58;15.13;;;6.87;;
16015;SDS011;8112;53.592;10.184;2022-11-25T13:14:12;14.93;;;7.73;;
16015;SDS011;8112;53.592;10.184;2022-11-25T13:19:21;13.87;;;7.13;;
16015;SDS011;8112;53.592;10.184;2022-11-25T13:24:30;13.97;;;7.87;;
16015;SDS011;8112;53.592;10.184;2022-11-25T13:40:38;12.93;;;7.50;;
16015;SDS011;8112;53.592;10.184;2022-11-25T13:45:41;12.23;;;7.30;;
16015;SDS011;8112;53.592;10.184;2022-11-25T13:50:45;16.43;;;8.00;;
16015;SDS011;8112;53.592;10.184;2022-11-25T13:55:49;12.60;;;7.17;;
16015;SDS011;8112;53.592;10.184;2022-11-25T14:01:03;12.77;;;6.40;;
16015;SDS011;8112;53.592;10.184;2022-11-25T14:11:58;12.67;;;6.50;;
16015;SDS011;8112;53.592;10.184;2022-11-25T14:17:25;13.70;;;7.37;;
16015;SDS011;8112;53.592;10.184;2022-11-25T14:22:52;14.13;;;7.23;;
16015;SDS011;8112;53.592;10.184;2022-11-25T14:28:06;14.03;;;7.20;;
16015;SDS011;8112;53.592;10.184;2022-11-25T14:33:16;17.07;;;8.77;;
16015;SDS011;8112;53.592;10.184;2022-11-25T14:38:24;15.60;;;7.90;;
16015;SDS011;8112;53.592;10.184;2022-11-25T14:43:35;14.20;;;8.27;;
16015;SDS011;8112;53.592;10.184;2022-11-25T14:48:42;14.30;;;8.60;;
16015;SDS011;8112;53.592;10.184;2022-11-25T14:53:45;14.37;;;8.37;;
16015;SDS011;8112;53.592;10.184;2022-11-25T14:58:50;15.47;;;7.43;;
16015;SDS011;8112;53.592;10.184;2022-11-25T15:04:02;15.90;;;9.60;;
16015;SDS011;8112;53.592;10.184;2022-11-25T15:09:14;13.77;;;8.60;;
16015;SDS011;8112;53.592;10.184;2022-11-25T15:14:22;14.37;;;8.50;;
16015;SDS011;8112;53.592;10.184;2022-11-25T15:19:30;16.17;;;10.47;;
16015;SDS011;8112;53.592;10.184;2022-11-25T15:24:39;18.57;;;10.87;;
16015;SDS011;8112;53.592;10.184;2022-11-25T15:29:43;17.20;;;9.17;;
16015;SDS011;8112;53.592;10.184;2022-11-25T15:34:47;14.00;;;9.27;;
16015;SDS011;8112;53.592;10.184;2022-11-25T15:45:33;12.83;;;8.50;;
16015;SDS011;8112;53.592;10.184;2022-11-25T15:50:44;15.80;;;10.03;;
16015;SDS011;8112;53.592;10.184;2022-11-25T15:55:45;13.63;;;9.30;;
16015;SDS011;8112;53.592;10.184;2022-11-25T16:01:00;17.23;;;10.50;;
16015;SDS011;8112;53.592;10.184;2022-11-25T16:06:17;14.03;;;8.80;;
16015;SDS011;8112;53.592;10.184;2022-11-25T16:11:20;16.90;;;10.03;;
16015;SDS011;8112;53.592;10.184;2022-11-25T16:16:25;17.43;;;10.20;;
16015;SDS011;8112;53.592;10.184;2022-11-25T16:21:41;18.03;;;11.77;;
16015;SDS011;8112;53.592;10.184;2022-11-25T16:26:49;13.93;;;9.97;;
16015;SDS011;8112;53.592;10.184;2022-11-25T16:31:53;14.93;;;9.20;;
16015;SDS011;8112;53.592;10.184;2022-11-25T16:36:56;16.97;;;12.20;;
16015;SDS011;8112;53.592;10.184;2022-11-25T16:41:58;17.40;;;11.53;;
16015;SDS011;8112;53.592;10.184;2022-11-25T16:47:03;18.63;;;10.93;;
16015;SDS011;8112;53.592;10.184;2022-11-25T16:52:06;20.50;;;12.20;;
16015;SDS011;8112;53.592;10.184;2022-11-25T16:57:09;16.27;;;10.93;;
16015;SDS011;8112;53.592;10.184;2022-11-25T17:02:17;16.43;;;10.53;;
16015;SDS011;8112;53.592;10.184;2022-11-25T17:07:22;14.57;;;10.87;;
16015;SDS011;8112;53.592;10.184;2022-11-25T17:12:25;19.57;;;11.47;;
16015;SDS011;8112;53.592;10.184;2022-11-25T17:17:30;16.60;;;10.40;;
16015;SDS011;8112;53.592;10.184;2022-11-25T17:22:34;16.67;;;12.53;;
16015;SDS011;8112;53.592;10.184;2022-11-25T17:27:35;36.53;;;26.03;;
16015;SDS011;8112;53.592;10.184;2022-11-25T17:32:37;19.20;;;14.27;;
16015;SDS011;8112;53.592;10.184;2022-11-25T17:37:40;17.50;;;11.20;;
16015;SDS011;8112;53.592;10.184;2022-11-25T17:42:42;17.83;;;11.50;;
16015;SDS011;8112;53.592;10.184;2022-11-25T17:47:45;16.37;;;12.50;;
16015;SDS011;8112;53.592;10.184;2022-11-25T17:52:48;16.90;;;11.43;;
16015;SDS011;8112;53.592;10.184;2022-11-25T17:57:50;15.87;;;11.70;;
16015;SDS011;8112;53.592;10.184;2022-11-25T18:02:52;18.13;;;11.60;;
16015;SDS011;8112;53.592;10.184;2022-11-25T18:07:56;15.97;;;11.87;;
16015;SDS011;8112;53.592;10.184;2022-11-25T18:12:57;14.87;;;12.13;;
16015;SDS011;8112;53.592;10.184;2022-11-25T18:18:01;21.53;;;15.13;;
16015;SDS011;8112;53.592;10.184;2022-11-25T18:23:07;23.93;;;15.63;;
16015;SDS011;8112;53.592;10.184;2022-11-25T18:28:09;23.07;;;15.77;;
16015;SDS011;8112;53.592;10.184;2022-11-25T18:33:17;22.93;;;15.80;;
16015;SDS011;8112;53.592;10.184;2022-11-25T18:38:21;25.37;;;17.40;;
16015;SDS011;8112;53.592;10.184;2022-11-25T18:43:23;22.57;;;15.20;;
16015;SDS011;8112;53.592;10.184;2022-11-25T18:48:27;23.27;;;16.20;;
16015;SDS011;8112;53.592;10.184;2022-11-25T18:53:30;23.47;;;16.23;;
16015;SDS011;8112;53.592;10.184;2022-11-25T18:58:32;25.70;;;15.77;;
16015;SDS011;8112;53.592;10.184;2022-11-25T19:03:34;28.13;;;17.97;;
16015;SDS011;8112;53.592;10.184;2022-11-25T19:08:37;23.30;;;14.83;;
16015;SDS011;8112;53.592;10.184;2022-11-25T19:13:39;23.40;;;15.33;;
16015;SDS011;8112;53.592;10.184;2022-11-25T19:18:41;24.50;;;16.30;;
16015;SDS011;8112;53.592;10.184;2022-11-25T19:23:46;27.40;;;18.00;;
16015;SDS011;8112;53.592;10.184;2022-11-25T19:28:49;23.90;;;19.27;;
16015;SDS011;8112;53.592;10.184;2022-11-25T19:33:53;25.37;;;16.40;;
16015;SDS011;8112;53.592;10.184;2022-11-25T19:38:57;27.70;;;17.87;;
16015;SDS011;8112;53.592;10.184;2022-11-25T19:43:58;25.63;;;18.57;;
16015;SDS011;8112;53.592;10.184;2022-11-25T19:49:00;31.23;;;19.37;;
16015;SDS011;8112;53.592;10.184;2022-11-25T19:54:05;28.97;;;20.50;;
16015;SDS011;8112;53.592;10.184;2022-11-25T19:59:09;33.73;;;19.53;;
16015;SDS011;8112;53.592;10.184;2022-11-25T20:04:15;28.03;;;18.73;;
16015;SDS011;8112;53.592;10.184;2022-11-25T20:09:21;29.93;;;20.47;;
16015;SDS011;8112;53.592;10.184;2022-11-25T20:14:22;29.53;;;19.10;;
16015;SDS011;8112;53.592;10.184;2022-11-25T20:19:24;27.70;;;19.83;;
16015;SDS011;8112;53.592;10.184;2022-11-25T20:24:27;27.13;;;18.83;;
16015;SDS011;8112;53.592;10.184;2022-11-25T20:29:30;36.60;;;21.90;;
16015;SDS011;8112;53.592;10.184;2022-11-25T20:34:31;34.17;;;21.23;;
16015;SDS011;8112;53.592;10.184;2022-11-25T20:39:35;31.47;;;20.77;;
16015;SDS011;8112;53.592;10.184;2022-11-25T20:44:36;35.53;;;21.33;;
16015;SDS011;8112;53.592;10.184;2022-11-25T20:49:39;29.83;;;21.00;;
16015;SDS011;8112;53.592;10.184;2022-11-25T20:54:42;33.93;;;20.90;;
16015;SDS011;8112;53.592;10.184;2022-11-25T20:59:44;32.63;;;19.33;;
16015;SDS011;8112;53.592;10.184;2022-11-25T21:04:45;30.50;;;19.90;;
16015;SDS011;8112;53.592;10.184;2022-11-25T21:09:48;35.30;;;20.20;;
16015;SDS011;8112;53.592;10.184;2022-11-25T21:14:50;33.97;;;19.40;;
16015;SDS011;8112;53.592;10.184;2022-11-25T21:19:52;27.87;;;18.90;;
16015;SDS011;8112;53.592;10.184;2022-11-25T21:24:55;27.47;;;18.77;;
16015;SDS011;8112;53.592;10.184;2022-11-25T21:29:57;32.77;;;18.77;;
16015;SDS011;8112;53.592;10.184;2022-11-25T21:34:59;33.50;;;19.53;;
16015;SDS011;8112;53.592;10.184;2022-11-25T21:40:05;30.00;;;17.70;;
16015;SDS011;8112;53.592;10.184;2022-11-25T21:45:12;33.80;;;17.27;;
16015;SDS011;8112;53.592;10.184;2022-11-25T21:50:17;34.37;;;17.63;;
16015;SDS011;8112;53.592;10.184;2022-11-25T21:55:21;29.63;;;17.73;;
16015;SDS011;8112;53.592;10.184;2022-11-25T22:00:23;31.13;;;17.27;;
16015;SDS011;8112;53.592;10.184;2022-11-25T22:05:26;30.33;;;16.53;;
16015;SDS011;8112;53.592;10.184;2022-11-25T22:10:31;26.07;;;16.47;;
16015;SDS011;8112;53.592;10.184;2022-11-25T22:15:32;29.80;;;16.10;;
16015;SDS011;8112;53.592;10.184;2022-11-25T22:20:35;25.27;;;15.20;;
16015;SDS011;8112;53.592;10.184;2022-11-25T22:25:38;28.03;;;14.13;;
16015;SDS011;8112;53.592;10.184;2022-11-25T22:30:40;25.00;;;13.70;;
16015;SDS011;8112;53.592;10.184;2022-11-25T22:35:46;25.77;;;12.77;;
16015;SDS011;8112;53.592;10.184;2022-11-25T22:40:49;25.37;;;13.60;;
16015;SDS011;8112;53.592;10.184;2022-11-25T22:45:53;29.40;;;13.10;;
16015;SDS011;8112;53.592;10.184;2022-11-25T22:50:55;24.57;;;12.67;;
16015;SDS011;8112;53.592;10.184;2022-11-25T22:55:59;23.63;;;13.33;;
16015;SDS011;8112;53.592;10.184;2022-11-25T23:01:00;31.00;;;13.00;;
16015;SDS011;8112;53.592;10.184;2022-11-25T23:06:02;23.63;;;12.07;;
16015;SDS011;8112;53.592;10.184;2022-11-25T23:11:11;26.40;;;12.87;;
16015;SDS011;8112;53.592;10.184;2022-11-25T23:16:16;26.00;;;12.17;;
16015;SDS011;8112;53.592;10.184;2022-11-25T23:21:18;25.87;;;12.53;;
16015;SDS011;8112;53.592;10.184;2022-11-25T23:26:24;27.97;;;13.53;;
16015;SDS011;8112;53.592;10.184;2022-11-25T23:31:27;20.83;;;11.70;;
16015;SDS011;8112;53.592;10.184;2022-11-25T23:36:38;27.10;;;12.50;;
16015;SDS011;8112;53.592;10.184;2022-11-25T23:41:45;21.93;;;11.17;;
16015;SDS011;8112;53.592;10.184;2022-11-25T23:46:47;20.67;;;11.77;;
16015;SDS011;8112;53.592;10.184;2022-11-25T23:51:50;18.67;;;10.57;;
16015;SDS011;8112;53.592;10.184;2022-11-25T23:56:57;23.93;;;11.63;;
